createdAt,value
2023-12-03T00:00:53.377Z,3.07
2023-12-03T00:03:22.256Z,3.17
2023-12-03T00:05:51.625Z,2.90
2023-12-03T00:08:20.812Z,3.33
2023-12-03T00:10:49.512Z,2.70
2023-12-03T00:13:18.104Z,2.87
2023-12-03T00:15:48.375Z,2.90
2023-12-03T00:18:17.103Z,2.60
2023-12-03T00:20:46.594Z,3.00
2023-12-03T00:23:15.600Z,2.60
2023-12-03T00:25:44.204Z,2.60
2023-12-03T00:28:13.100Z,2.60
2023-12-03T00:30:42.022Z,2.47
2023-12-03T00:33:11.975Z,2.90
2023-12-03T00:35:40.764Z,2.90
2023-12-03T00:38:09.604Z,2.77
2023-12-03T00:40:38.783Z,2.80
2023-12-03T00:43:07.704Z,3.03
2023-12-03T00:45:36.451Z,2.90
2023-12-03T00:48:05.641Z,3.07
2023-12-03T00:50:36.087Z,3.13
2023-12-03T00:53:05.066Z,4.10
2023-12-03T00:55:33.612Z,3.00
2023-12-03T00:58:03.090Z,3.53
2023-12-03T01:00:31.629Z,3.00
2023-12-03T01:03:00.026Z,2.47
2023-12-03T01:05:28.854Z,3.10
2023-12-03T01:07:58.987Z,3.10
2023-12-03T01:10:27.447Z,2.53
2023-12-03T01:12:56.037Z,2.87
2023-12-03T01:15:24.907Z,2.20
2023-12-03T01:17:53.557Z,2.40
2023-12-03T01:20:22.278Z,2.67
2023-12-03T01:22:50.923Z,3.30
2023-12-03T01:25:21.333Z,2.77
2023-12-03T01:27:50.183Z,2.60
2023-12-03T01:30:19.143Z,2.83
2023-12-03T01:32:47.679Z,3.03
2023-12-03T01:35:17.007Z,2.53
2023-12-03T01:37:45.870Z,3.30
2023-12-03T01:40:14.909Z,2.70
2023-12-03T01:42:44.955Z,3.00
2023-12-03T01:45:13.889Z,2.70
2023-12-03T01:47:43.091Z,3.20
2023-12-03T01:50:13.894Z,3.87
2023-12-03T01:52:42.733Z,2.60
2023-12-03T01:55:14.083Z,3.10
2023-12-03T01:57:44.241Z,2.90
2023-12-03T02:00:16.770Z,3.30
2023-12-03T02:02:45.744Z,2.57
2023-12-03T02:05:14.432Z,2.43
2023-12-03T02:07:43.122Z,2.80
2023-12-03T02:10:11.997Z,2.80
2023-12-03T02:12:40.774Z,3.10
2023-12-03T02:15:10.862Z,3.27
2023-12-03T02:17:41.131Z,2.70
2023-12-03T02:20:10.770Z,3.43
2023-12-03T02:22:44.643Z,2.63
2023-12-03T02:25:13.433Z,2.47
2023-12-03T02:27:41.999Z,2.50
2023-12-03T02:30:11.295Z,3.10
2023-12-03T02:32:40.047Z,3.00
2023-12-03T02:35:09.665Z,2.67
2023-12-03T02:37:38.390Z,3.47
2023-12-03T02:40:12.844Z,3.40
2023-12-03T02:42:41.495Z,3.67
2023-12-03T02:45:11.686Z,3.47
2023-12-03T02:47:40.388Z,3.03
2023-12-03T02:50:09.977Z,2.87
2023-12-03T02:52:38.852Z,3.10
2023-12-03T02:55:11.032Z,2.40
2023-12-03T02:57:40.435Z,3.20
2023-12-03T03:00:10.387Z,2.73
2023-12-03T03:02:39.270Z,2.90
2023-12-03T03:05:08.836Z,3.07
2023-12-03T03:07:37.649Z,2.83
2023-12-03T03:10:06.983Z,3.70
2023-12-03T03:12:37.123Z,3.10
2023-12-03T03:15:06.533Z,2.60
2023-12-03T03:17:35.262Z,3.53
2023-12-03T03:20:04.196Z,3.10
2023-12-03T03:22:32.841Z,3.00
2023-12-03T03:25:02.102Z,2.97
2023-12-03T03:27:30.909Z,2.70
2023-12-03T03:30:01.454Z,2.70
2023-12-03T03:32:30.249Z,2.60
2023-12-03T03:34:59.207Z,2.50
2023-12-03T03:37:27.892Z,2.57
2023-12-03T03:39:56.575Z,2.80
2023-12-03T03:42:25.281Z,2.83
2023-12-03T03:44:54.224Z,3.53
2023-12-03T03:47:25.835Z,3.07
2023-12-03T03:49:54.473Z,2.93
2023-12-03T03:52:23.457Z,2.73
2023-12-03T03:54:52.450Z,2.40
2023-12-03T03:57:21.542Z,2.83
2023-12-03T03:59:50.490Z,2.87
2023-12-03T04:02:19.171Z,3.20
2023-12-03T04:04:49.442Z,3.23
2023-12-03T04:07:18.332Z,3.70
2023-12-03T04:09:47.846Z,3.27
2023-12-03T04:12:16.753Z,3.30
2023-12-03T04:14:45.712Z,2.80
2023-12-03T04:17:14.413Z,2.73
2023-12-03T04:19:43.262Z,2.90
2023-12-03T04:22:13.455Z,2.47
2023-12-03T04:24:42.354Z,2.40
2023-12-03T04:27:11.304Z,2.30
2023-12-03T04:29:40.209Z,3.07
2023-12-03T04:32:09.405Z,3.27
2023-12-03T04:34:38.387Z,2.20
2023-12-03T04:37:07.006Z,2.47
2023-12-03T04:39:37.590Z,2.53
2023-12-03T04:42:07.852Z,2.87
2023-12-03T04:44:36.613Z,2.60
2023-12-03T04:47:05.453Z,2.33
2023-12-03T04:49:34.379Z,2.50
2023-12-03T04:52:03.400Z,2.70
2023-12-03T04:54:32.234Z,3.17
2023-12-03T04:57:04.116Z,2.43
2023-12-03T04:59:32.759Z,2.50
2023-12-03T05:02:01.463Z,2.20
2023-12-03T05:04:30.094Z,2.23
2023-12-03T05:06:59.551Z,2.20
2023-12-03T05:09:28.360Z,3.43
2023-12-03T05:11:56.954Z,2.97
2023-12-03T05:14:27.458Z,2.70
2023-12-03T05:16:55.976Z,2.40
2023-12-03T05:19:24.620Z,2.00
2023-12-03T05:21:53.688Z,2.57
2023-12-03T05:24:22.488Z,2.10
2023-12-03T05:26:51.810Z,1.97
2023-12-03T05:29:23.459Z,2.33
2023-12-03T05:31:53.614Z,2.47
2023-12-03T05:34:22.079Z,2.37
2023-12-03T05:36:54.048Z,2.60
2023-12-03T05:39:23.313Z,3.10
2023-12-03T05:41:52.040Z,3.33
2023-12-03T05:44:20.833Z,6.00
2023-12-03T05:46:49.509Z,6.00
2023-12-03T05:49:19.854Z,6.07
2023-12-03T05:51:48.789Z,5.60
2023-12-03T05:54:17.617Z,5.30
2023-12-03T05:56:49.495Z,4.47
2023-12-03T05:59:18.895Z,5.10
2023-12-03T06:01:47.800Z,4.57
2023-12-03T06:04:16.520Z,4.00
2023-12-03T06:06:47.326Z,4.43
2023-12-03T06:09:19.029Z,4.07
2023-12-03T06:11:47.575Z,3.53
2023-12-03T06:14:16.444Z,3.57
2023-12-03T06:16:45.149Z,4.07
2023-12-03T06:19:13.836Z,3.50
2023-12-03T06:21:42.507Z,4.03
2023-12-03T06:24:12.424Z,3.83
2023-12-03T06:26:40.934Z,4.30
2023-12-03T06:29:09.428Z,4.03
2023-12-03T06:31:38.661Z,3.13
2023-12-03T06:34:07.184Z,2.63
2023-12-03T06:36:35.681Z,3.20
2023-12-03T06:39:04.152Z,2.83
2023-12-03T06:41:34.048Z,2.20
2023-12-03T06:44:02.370Z,2.43
2023-12-03T06:46:31.038Z,2.90
2023-12-03T06:48:59.525Z,3.40
2023-12-03T06:51:28.131Z,3.30
2023-12-03T06:53:56.701Z,3.20
2023-12-03T06:56:25.199Z,3.80
2023-12-03T06:58:55.440Z,4.10
2023-12-03T07:01:24.020Z,3.93
2023-12-03T07:03:52.425Z,4.83
2023-12-03T07:06:21.027Z,4.40
2023-12-03T07:08:49.505Z,4.20
2023-12-03T07:11:18.296Z,3.27
2023-12-03T07:13:46.714Z,2.73
2023-12-03T07:16:17.686Z,3.50
2023-12-03T07:18:46.394Z,3.23
2023-12-03T07:21:15.331Z,3.07
2023-12-03T07:23:43.810Z,5.27
2023-12-03T07:26:12.913Z,4.50
2023-12-03T07:28:41.674Z,4.80
2023-12-03T07:31:10.630Z,5.27
2023-12-03T07:33:40.791Z,5.20
2023-12-03T07:36:10.844Z,6.10
2023-12-03T07:38:39.387Z,5.10
2023-12-03T07:41:12.306Z,6.40
2023-12-03T07:43:40.775Z,5.50
2023-12-03T07:46:11.462Z,6.97
2023-12-03T07:48:41.641Z,6.97
2023-12-03T07:51:11.924Z,7.10
2023-12-03T07:53:41.800Z,7.57
2023-12-03T07:56:11.279Z,9.70
2023-12-03T07:58:39.823Z,7.30
2023-12-03T08:01:09.185Z,6.87
2023-12-03T08:03:37.748Z,8.10
2023-12-03T08:06:08.337Z,8.03
2023-12-03T08:08:36.930Z,8.10
2023-12-03T08:11:06.029Z,7.43
2023-12-03T08:13:34.837Z,7.93
2023-12-03T08:16:05.791Z,8.07
2023-12-03T08:18:34.647Z,7.40
2023-12-03T08:21:03.397Z,7.87
2023-12-03T08:23:34.440Z,7.80
2023-12-03T08:26:06.187Z,8.33
2023-12-03T08:28:36.513Z,9.00
2023-12-03T08:31:05.505Z,9.70
2023-12-03T08:33:36.236Z,9.70
2023-12-03T08:36:08.976Z,10.10
2023-12-03T08:38:39.644Z,9.23
2023-12-03T08:41:08.882Z,9.17
2023-12-03T08:43:37.933Z,10.23
2023-12-03T08:46:11.508Z,10.30
2023-12-03T08:48:40.222Z,9.50
2023-12-03T08:51:10.107Z,8.40
2023-12-03T08:53:41.929Z,8.27
2023-12-03T08:56:13.839Z,11.00
2023-12-03T08:58:42.287Z,9.97
2023-12-03T09:01:10.764Z,9.90
2023-12-03T09:03:42.012Z,9.37
2023-12-03T09:06:11.521Z,10.50
2023-12-03T09:08:43.687Z,10.17
2023-12-03T09:11:13.073Z,10.30
2023-12-03T09:13:41.971Z,10.93
2023-12-03T09:16:11.362Z,12.40
2023-12-03T09:18:40.737Z,11.03
2023-12-03T09:21:13.191Z,10.77
2023-12-03T09:23:43.869Z,10.17
2023-12-03T09:26:12.471Z,11.37
2023-12-03T09:28:40.780Z,10.37
2023-12-03T09:31:09.377Z,10.60
2023-12-03T09:33:38.615Z,9.97
2023-12-03T09:36:09.785Z,9.10
2023-12-03T09:38:41.436Z,8.13
2023-12-03T09:41:16.026Z,8.73
2023-12-03T09:43:49.432Z,8.73
2023-12-03T09:46:18.412Z,7.73
2023-12-03T09:48:47.052Z,9.10
2023-12-03T09:51:15.761Z,9.03
2023-12-03T09:53:46.874Z,9.13
2023-12-03T09:56:20.363Z,9.40
2023-12-03T09:58:50.948Z,9.30
2023-12-03T10:01:20.175Z,9.73
2023-12-03T10:03:48.666Z,9.13
2023-12-03T10:06:21.252Z,9.30
2023-12-03T10:08:50.953Z,9.60
2023-12-03T10:11:26.661Z,10.40
2023-12-03T10:14:03.051Z,9.87
2023-12-03T10:16:31.948Z,10.27
2023-12-03T10:19:02.702Z,9.87
2023-12-03T10:21:31.285Z,9.90
2023-12-03T10:24:00.732Z,8.87
2023-12-03T10:26:30.800Z,9.10
2023-12-03T10:28:59.385Z,10.10
2023-12-03T10:31:32.470Z,9.87
2023-12-03T10:34:01.296Z,10.20
2023-12-03T10:36:33.062Z,8.67
2023-12-03T10:39:01.652Z,9.20
2023-12-03T10:41:31.863Z,8.83
2023-12-03T10:44:00.650Z,9.33
2023-12-03T10:46:29.606Z,9.70
2023-12-03T10:48:58.420Z,9.43
2023-12-03T10:51:28.571Z,10.07
2023-12-03T10:53:56.987Z,9.73
2023-12-03T10:56:26.059Z,10.30
2023-12-03T10:58:59.255Z,10.07
2023-12-03T11:01:30.359Z,10.20
2023-12-03T11:04:04.311Z,9.40
2023-12-03T11:06:34.848Z,10.73
2023-12-03T11:09:03.925Z,8.20
2023-12-03T11:11:33.014Z,7.90
2023-12-03T11:14:03.771Z,8.40
2023-12-03T11:16:40.910Z,8.53
2023-12-03T11:19:16.929Z,7.83
2023-12-03T11:21:54.470Z,8.00
2023-12-03T11:24:48.945Z,8.33
2023-12-03T11:27:17.659Z,7.63
2023-12-03T11:29:52.119Z,7.83
2023-12-03T11:32:27.505Z,8.30
2023-12-03T11:35:03.032Z,8.37
2023-12-03T11:37:32.884Z,8.20
2023-12-03T11:40:09.931Z,9.10
2023-12-03T11:42:45.496Z,9.63
2023-12-03T11:45:27.960Z,16.00
2023-12-03T11:48:08.645Z,30.80
2023-12-03T11:50:39.154Z,18.67
2023-12-03T11:53:08.814Z,8.90
2023-12-03T11:55:41.219Z,8.93
2023-12-03T11:58:10.073Z,7.80
2023-12-03T12:00:42.695Z,9.20
2023-12-03T12:03:12.096Z,8.27
2023-12-03T12:05:47.411Z,8.20
2023-12-03T12:08:23.505Z,8.53
2023-12-03T12:10:54.262Z,8.67
2023-12-03T12:13:24.705Z,9.10
2023-12-03T12:15:56.714Z,8.57
2023-12-03T12:18:25.617Z,9.07
2023-12-03T12:20:54.365Z,9.10
2023-12-03T12:23:23.073Z,8.93
2023-12-03T12:25:51.537Z,9.17
2023-12-03T12:28:19.993Z,10.07
2023-12-03T12:30:48.900Z,9.50
2023-12-03T12:33:19.206Z,9.60
2023-12-03T12:35:51.375Z,9.87
2023-12-03T12:38:20.047Z,10.50
2023-12-03T12:40:54.734Z,11.10
2023-12-03T12:43:24.623Z,10.20
2023-12-03T12:45:53.563Z,11.17
2023-12-03T12:48:28.962Z,10.90
2023-12-03T12:50:58.944Z,9.57
2023-12-03T12:53:27.767Z,9.50
2023-12-03T12:55:56.360Z,10.53
2023-12-03T12:58:25.269Z,10.37
2023-12-03T13:00:54.086Z,12.73
2023-12-03T13:03:22.698Z,13.00
2023-12-03T13:05:53.112Z,10.07
2023-12-03T13:08:21.630Z,9.93
2023-12-03T13:10:50.188Z,12.00
2023-12-03T13:13:18.805Z,13.30
2023-12-03T13:15:47.685Z,11.13
2023-12-03T13:18:22.359Z,9.77
2023-12-03T13:20:55.373Z,12.27
2023-12-03T13:23:24.483Z,9.53
2023-12-03T13:25:53.701Z,9.30
2023-12-03T13:28:22.232Z,9.60
2023-12-03T13:30:50.698Z,9.43
2023-12-03T13:33:19.420Z,9.53
2023-12-03T13:35:48.014Z,10.03
2023-12-03T13:38:18.106Z,9.30
2023-12-03T13:40:47.112Z,10.03
2023-12-03T13:43:16.883Z,10.10
2023-12-03T13:45:45.534Z,9.63
2023-12-03T13:48:14.385Z,9.60
2023-12-03T13:50:42.921Z,9.10
2023-12-03T13:53:11.552Z,9.10
2023-12-03T13:55:41.483Z,8.10
2023-12-03T13:58:10.228Z,9.23
2023-12-03T14:00:39.355Z,8.70
2023-12-03T14:03:08.796Z,8.57
2023-12-03T14:05:37.514Z,8.47
2023-12-03T14:08:07.657Z,9.27
2023-12-03T14:10:36.432Z,8.37
2023-12-03T14:13:07.432Z,8.83
2023-12-03T14:15:35.969Z,8.13
2023-12-03T14:18:04.830Z,9.00
2023-12-03T14:20:33.482Z,8.60
2023-12-03T14:23:02.144Z,9.17
2023-12-03T14:25:31.235Z,10.23
2023-12-03T14:28:00.546Z,8.07
2023-12-03T14:30:30.612Z,9.10
2023-12-03T14:32:59.105Z,8.57
2023-12-03T14:35:27.774Z,6.93
2023-12-03T14:37:56.752Z,8.67
2023-12-03T14:40:25.444Z,7.43
2023-12-03T14:42:54.048Z,7.07
2023-12-03T14:45:22.580Z,7.00
2023-12-03T14:47:53.315Z,7.23
2023-12-03T14:50:22.055Z,7.20
2023-12-03T14:52:51.711Z,6.77
2023-12-03T14:55:20.960Z,6.63
2023-12-03T14:57:51.862Z,6.27
2023-12-03T15:00:21.456Z,6.93
2023-12-03T15:02:50.807Z,7.20
2023-12-03T15:05:21.404Z,6.77
2023-12-03T15:07:50.933Z,6.67
2023-12-03T15:10:19.821Z,6.40
2023-12-03T15:12:48.585Z,6.53
2023-12-03T15:15:20.455Z,6.57
2023-12-03T15:17:49.175Z,6.33
2023-12-03T15:20:17.937Z,6.43
2023-12-03T15:22:47.807Z,5.90
2023-12-03T15:25:17.562Z,6.00
2023-12-03T15:27:46.543Z,5.00
2023-12-03T15:30:21.933Z,5.07
2023-12-03T15:32:50.578Z,5.87
2023-12-03T15:35:19.214Z,4.90
2023-12-03T15:37:52.096Z,4.83
2023-12-03T15:40:21.497Z,5.37
2023-12-03T15:42:55.909Z,5.27
2023-12-03T15:45:25.730Z,5.50
2023-12-03T15:47:54.994Z,5.90
2023-12-03T15:50:24.478Z,6.17
2023-12-03T15:52:54.549Z,5.87
2023-12-03T15:55:23.799Z,5.30
2023-12-03T15:57:53.789Z,5.60
2023-12-03T16:00:22.801Z,7.90
2023-12-03T16:02:52.955Z,5.10
2023-12-03T16:05:21.671Z,4.97
2023-12-03T16:07:50.154Z,5.37
2023-12-03T16:10:21.742Z,4.97
2023-12-03T16:12:50.148Z,5.37
2023-12-03T16:15:19.314Z,5.10
2023-12-03T16:17:47.884Z,5.40
2023-12-03T16:20:16.362Z,5.33
2023-12-03T16:22:45.099Z,6.00
2023-12-03T16:25:13.753Z,5.70
2023-12-03T16:27:43.875Z,5.17
2023-12-03T16:30:12.996Z,5.77
2023-12-03T16:32:41.550Z,5.50
2023-12-03T16:35:13.083Z,6.10
2023-12-03T16:37:42.046Z,5.57
2023-12-03T16:40:11.429Z,5.97
2023-12-03T16:42:40.240Z,7.10
2023-12-03T16:45:11.880Z,5.73
2023-12-03T16:47:41.753Z,5.73
2023-12-03T16:50:11.483Z,5.53
2023-12-03T16:52:40.006Z,6.10
2023-12-03T16:55:09.670Z,6.10
2023-12-03T16:57:38.510Z,6.10
2023-12-03T17:00:10.937Z,6.50
2023-12-03T17:02:39.581Z,6.27
2023-12-03T17:05:08.559Z,6.47
2023-12-03T17:07:37.167Z,6.10
2023-12-03T17:10:06.741Z,6.30
2023-12-03T17:12:44.187Z,6.93
2023-12-03T17:15:18.242Z,6.90
2023-12-03T17:17:46.719Z,6.77
2023-12-03T17:20:15.583Z,6.20
2023-12-03T17:22:44.494Z,5.97
2023-12-03T17:25:13.114Z,6.57
2023-12-03T17:27:42.067Z,6.63
2023-12-03T17:30:11.167Z,7.13
2023-12-03T17:32:42.140Z,6.40
2023-12-03T17:35:11.400Z,6.90
2023-12-03T17:37:39.861Z,6.67
2023-12-03T17:40:12.601Z,6.63
2023-12-03T17:42:43.077Z,7.03
2023-12-03T17:45:12.710Z,7.23
2023-12-03T17:47:43.573Z,8.00
2023-12-03T17:50:12.786Z,7.47
2023-12-03T17:52:41.721Z,7.53
2023-12-03T17:55:11.072Z,7.37
2023-12-03T17:57:39.776Z,6.97
2023-12-03T18:00:09.582Z,7.50
2023-12-03T18:02:38.648Z,7.33
2023-12-03T18:05:10.949Z,6.40
2023-12-03T18:07:40.026Z,7.07
2023-12-03T18:10:12.881Z,7.50
2023-12-03T18:12:41.431Z,7.50
2023-12-03T18:15:10.964Z,6.97
2023-12-03T18:17:41.089Z,7.83
2023-12-03T18:20:14.377Z,6.73
2023-12-03T18:22:45.268Z,6.57
2023-12-03T18:25:14.477Z,6.87
2023-12-03T18:27:43.261Z,6.97
2023-12-03T18:30:12.812Z,6.60
2023-12-03T18:32:41.310Z,6.80
2023-12-03T18:35:12.243Z,7.33
2023-12-03T18:37:40.827Z,7.00
2023-12-03T18:40:12.129Z,6.77
2023-12-03T18:42:40.977Z,7.10
2023-12-03T18:45:10.740Z,7.00
2023-12-03T18:47:39.364Z,6.73
2023-12-03T18:50:08.582Z,6.60
2023-12-03T18:52:39.200Z,7.00
2023-12-03T18:55:09.124Z,6.43
2023-12-03T18:57:37.664Z,6.63
2023-12-03T19:00:07.430Z,7.87
2023-12-03T19:02:36.365Z,6.83
2023-12-03T19:05:05.966Z,7.03
2023-12-03T19:07:34.828Z,6.93
2023-12-03T19:10:05.118Z,6.33
2023-12-03T19:12:33.939Z,6.17
2023-12-03T19:15:02.563Z,6.30
2023-12-03T19:17:31.221Z,6.07
2023-12-03T19:20:00.144Z,6.20
2023-12-03T19:22:29.579Z,5.80
2023-12-03T19:24:59.325Z,7.60
2023-12-03T19:27:29.303Z,7.50
2023-12-03T19:29:59.635Z,7.13
2023-12-03T19:32:28.352Z,7.40
2023-12-03T19:34:57.160Z,6.60
2023-12-03T19:37:25.958Z,6.73
2023-12-03T19:39:54.407Z,6.73
2023-12-03T19:42:23.154Z,6.30
2023-12-03T19:44:53.677Z,6.87
2023-12-03T19:47:22.441Z,6.90
2023-12-03T19:49:51.268Z,6.87
2023-12-03T19:52:20.957Z,8.50
2023-12-03T19:54:49.718Z,6.60
2023-12-03T19:57:19.954Z,7.10
2023-12-03T19:59:48.841Z,7.03
2023-12-03T20:02:18.950Z,6.33
2023-12-03T20:04:47.478Z,6.50
2023-12-03T20:07:16.607Z,6.37
2023-12-03T20:09:45.479Z,6.40
2023-12-03T20:12:14.075Z,6.13
2023-12-03T20:14:42.925Z,6.10
2023-12-03T20:17:12.990Z,6.80
2023-12-03T20:19:43.216Z,6.20
2023-12-03T20:22:11.796Z,5.93
2023-12-03T20:24:41.617Z,6.60
2023-12-03T20:27:10.162Z,6.83
2023-12-03T20:29:38.760Z,6.57
2023-12-03T20:32:08.675Z,5.87
2023-12-03T20:34:37.427Z,5.67
2023-12-03T20:37:09.852Z,5.37
2023-12-03T20:39:38.604Z,6.07
2023-12-03T20:42:07.627Z,5.80
2023-12-03T20:44:38.671Z,6.10
2023-12-03T20:47:07.433Z,5.37
2023-12-03T20:49:36.359Z,5.20
2023-12-03T20:52:08.863Z,5.70
2023-12-03T20:54:37.572Z,6.23
2023-12-03T20:57:06.642Z,5.13
2023-12-03T20:59:36.143Z,6.03
2023-12-03T21:02:06.038Z,6.03
2023-12-03T21:04:34.704Z,6.00
2023-12-03T21:07:03.532Z,5.97
2023-12-03T21:09:33.699Z,6.40
2023-12-03T21:12:02.221Z,6.27
2023-12-03T21:14:31.284Z,5.60
2023-12-03T21:16:59.997Z,6.57
2023-12-03T21:19:29.735Z,6.27
2023-12-03T21:21:58.495Z,6.30
2023-12-03T21:24:26.952Z,6.90
2023-12-03T21:26:57.186Z,6.93
2023-12-03T21:29:26.446Z,6.73
2023-12-03T21:31:55.070Z,6.53
2023-12-03T21:34:23.737Z,6.87
2023-12-03T21:36:54.644Z,6.47
2023-12-03T21:39:23.172Z,5.80
2023-12-03T21:41:52.260Z,6.97
2023-12-03T21:44:22.779Z,6.90
2023-12-03T21:46:51.226Z,7.17
2023-12-03T21:49:20.326Z,6.30
2023-12-03T21:51:49.138Z,6.10
2023-12-03T21:54:17.652Z,6.27
2023-12-03T21:56:46.340Z,7.00
2023-12-03T21:59:14.933Z,5.50
2023-12-03T22:01:45.170Z,7.00
2023-12-03T22:04:14.000Z,6.53
2023-12-03T22:06:42.672Z,7.20
2023-12-03T22:09:11.428Z,7.30
2023-12-03T22:11:40.157Z,7.53
2023-12-03T22:14:09.111Z,7.53
2023-12-03T22:16:37.721Z,7.60
2023-12-03T22:19:08.132Z,8.00
2023-12-03T22:21:36.823Z,7.53
2023-12-03T22:24:05.587Z,7.07
2023-12-03T22:26:34.757Z,7.80
2023-12-03T22:29:03.854Z,7.20
2023-12-03T22:31:32.534Z,8.40
2023-12-03T22:34:01.351Z,6.50
2023-12-03T22:36:31.593Z,6.93
2023-12-03T22:39:00.320Z,6.97
2023-12-03T22:41:28.973Z,6.67
2023-12-03T22:43:57.542Z,6.77
2023-12-03T22:46:26.464Z,6.73
2023-12-03T22:48:55.043Z,7.10
2023-12-03T22:51:23.713Z,6.63
2023-12-03T22:53:54.081Z,7.33
2023-12-03T22:56:22.903Z,6.50
2023-12-03T22:58:51.534Z,6.40
2023-12-03T23:01:20.213Z,6.90
2023-12-03T23:03:48.630Z,6.40
2023-12-03T23:06:17.389Z,7.10
2023-12-03T23:08:46.104Z,7.23
2023-12-03T23:11:16.470Z,6.60
2023-12-03T23:13:45.231Z,7.07
2023-12-03T23:16:14.080Z,6.00
2023-12-03T23:18:44.208Z,5.53
2023-12-03T23:21:13.136Z,6.70
2023-12-03T23:23:42.267Z,6.93
2023-12-03T23:26:11.163Z,5.93
2023-12-03T23:28:41.527Z,6.33
2023-12-03T23:31:12.404Z,6.43
2023-12-03T23:33:41.258Z,6.77
2023-12-03T23:36:11.075Z,7.33
2023-12-03T23:38:40.000Z,5.93
2023-12-03T23:41:10.260Z,6.77
2023-12-03T23:43:40.319Z,6.87
2023-12-03T23:46:09.748Z,7.57
2023-12-03T23:48:40.061Z,7.03
2023-12-03T23:51:09.682Z,6.77
2023-12-03T23:53:39.002Z,6.43
2023-12-03T23:56:08.540Z,6.90
2023-12-03T23:58:36.916Z,6.70
